地図

経路データ

SID SEASON NUMBER BASIN SUBBASIN NAME ISO_TIME NATURE LAT LON WMO_WIND WMO_PRES WMO_AGENCY TRACK_TYPE DIST2LAND LANDFALL IFLAG USA_AGENCY USA_ATCF_ID USA_LAT USA_LON USA_RECORD USA_STATUS USA_WIND USA_PRES USA_SSHS USA_R34_NE USA_R34_SE USA_R34_SW USA_R34_NW USA_R50_NE USA_R50_SE USA_R50_SW USA_R50_NW USA_R64_NE USA_R64_SE USA_R64_SW USA_R64_NW USA_POCI USA_ROCI USA_RMW USA_EYE TOKYO_LAT TOKYO_LON TOKYO_GRADE TOKYO_WIND TOKYO_PRES TOKYO_R50_DIR TOKYO_R50_LONG TOKYO_R50_SHORT TOKYO_R30_DIR TOKYO_R30_LONG TOKYO_R30_SHORT TOKYO_LAND CMA_LAT CMA_LON CMA_CAT CMA_WIND CMA_PRES HKO_LAT HKO_LON HKO_CAT HKO_WIND HKO_PRES NEWDELHI_LAT NEWDELHI_LON NEWDELHI_GRADE NEWDELHI_WIND NEWDELHI_PRES NEWDELHI_CI NEWDELHI_DP NEWDELHI_POCI REUNION_LAT REUNION_LON REUNION_TYPE REUNION_WIND REUNION_PRES REUNION_TNUM REUNION_CI REUNION_RMW REUNION_R34_NE REUNION_R34_SE REUNION_R34_SW REUNION_R34_NW REUNION_R50_NE REUNION_R50_SE REUNION_R50_SW REUNION_R50_NW REUNION_R64_NE REUNION_R64_SE REUNION_R64_SW REUNION_R64_NW BOM_LAT BOM_LON BOM_TYPE BOM_WIND BOM_PRES BOM_TNUM BOM_CI BOM_RMW BOM_R34_NE BOM_R34_SE BOM_R34_SW BOM_R34_NW BOM_R50_NE BOM_R50_SE BOM_R50_SW BOM_R50_NW BOM_R64_NE BOM_R64_SE BOM_R64_SW BOM_R64_NW BOM_ROCI BOM_POCI BOM_EYE BOM_POS_METHOD BOM_PRES_METHOD NADI_LAT NADI_LON NADI_CAT NADI_WIND NADI_PRES WELLINGTON_LAT WELLINGTON_LON WELLINGTON_WIND WELLINGTON_PRES DS824_LAT DS824_LON DS824_STAGE DS824_WIND DS824_PRES TD9636_LAT TD9636_LON TD9636_STAGE TD9636_WIND TD9636_PRES TD9635_LAT TD9635_LON TD9635_WIND TD9635_PRES TD9635_ROCI NEUMANN_LAT NEUMANN_LON NEUMANN_CLASS NEUMANN_WIND NEUMANN_PRES MLC_LAT MLC_LON MLC_CLASS MLC_WIND MLC_PRES USA_GUST BOM_GUST BOM_GUST_PER REUNION_GUST REUNION_GUST_PER USA_SEAHGT USA_SEARAD_NE USA_SEARAD_SE USA_SEARAD_SW USA_SEARAD_NW STORM_SPEED STORM_DIR
1909234N23274 1909 43 NA GM NOT_NAMED 1909-08-22 00:00:00 TS 23.0000 -85.7000 25 hurdat_atl main 142 142 O_____________ hurdat_atl AL071909 23.0000 -85.7000 TD 25 -1 7 313
1909234N23274 1909 43 NA GM NOT_NAMED 1909-08-22 03:00:00 TS 23.2501 -85.9923 main 187 187 P_____________ AL071909 23.2501 -85.9923 TD 25 -1 7 312
1909234N23274 1909 43 NA GM NOT_NAMED 1909-08-22 06:00:00 TS 23.5000 -86.3000 25 hurdat_atl main 223 223 O_____________ hurdat_atl AL071909 23.5000 -86.3000 TD 25 -1 8 310
1909234N23274 1909 43 NA GM NOT_NAMED 1909-08-22 09:00:00 TS 23.7499 -86.6351 main 249 249 P_____________ AL071909 23.7499 -86.6351 TD 25 -1 8 308
1909234N23274 1909 43 NA GM NOT_NAMED 1909-08-22 12:00:00 TS 24.0000 -87.0000 25 hurdat_atl main 279 279 O_____________ hurdat_atl AL071909 24.0000 -87.0000 TD 25 -1 9 306
1909234N23274 1909 43 NA GM NOT_NAMED 1909-08-22 15:00:00 TS 24.2500 -87.3926 main 303 303 P_____________ AL071909 24.2500 -87.3926 TD 27 -1 9 304
1909234N23274 1909 43 NA GM NOT_NAMED 1909-08-22 18:00:00 TS 24.5000 -87.8000 30 hurdat_atl main 335 335 O_____________ hurdat_atl AL071909 24.5000 -87.8000 TD 30 -1 9 304
1909234N23274 1909 43 NA GM NOT_NAMED 1909-08-22 21:00:00 TS 24.7498 -88.1927 main 357 357 P_____________ AL071909 24.7498 -88.1927 TD 32 -1 9 305
1909234N23274 1909 43 NA GM NOT_NAMED 1909-08-23 00:00:00 TS 25.0000 -88.6000 35 hurdat_atl main 391 391 O_____________ hurdat_atl AL071909 25.0000 -88.6000 TS 35 0 9 303
1909234N23274 1909 43 NA GM NOT_NAMED 1909-08-23 03:00:00 TS 25.2499 -89.0352 main 415 391 P_____________ AL071909 25.2499 -89.0352 TS 37 0 10 302
1909234N23274 1909 43 NA GM NOT_NAMED 1909-08-23 06:00:00 TS 25.5000 -89.5000 40 hurdat_atl main 392 368 O_____________ hurdat_atl AL071909 25.5000 -89.5000 TS 40 0 10 301
1909234N23274 1909 43 NA GM NOT_NAMED 1909-08-23 09:00:00 TS 25.7724 -89.9924 main 368 346 P_____________ AL071909 25.7724 -89.9924 TS 42 0 10 299
1909234N23274 1909 43 NA GM NOT_NAMED 1909-08-23 12:00:00 TS 26.0000 -90.5000 45 hurdat_atl main 346 334 O_____________ hurdat_atl AL071909 26.0000 -90.5000 TS 45 0 10 292
1909234N23274 1909 43 NA GM NOT_NAMED 1909-08-23 15:00:00 TS 26.1297 -90.9928 main 335 324 P_____________ AL071909 26.1297 -90.9928 TS 45 0 9 283
1909234N23274 1909 43 NA GM NOT_NAMED 1909-08-23 18:00:00 TS 26.2000 -91.5000 45 hurdat_atl main 329 327 O_____________ hurdat_atl AL071909 26.2000 -91.5000 TS 45 0 9 279
1909234N23274 1909 43 NA GM NOT_NAMED 1909-08-23 21:00:00 TS 26.2723 -92.0349 main 330 330 P_____________ AL071909 26.2723 -92.0349 TS 42 0 10 276
1909234N23274 1909 43 NA GM NOT_NAMED 1909-08-24 00:00:00 TS 26.3000 -92.6000 40 hurdat_atl main 354 354 O_____________ hurdat_atl AL071909 26.3000 -92.6000 TS 40 0 10 270
1909234N23274 1909 43 NA GM NOT_NAMED 1909-08-24 03:00:00 TS 26.2723 -93.1926 main 360 329 P_____________ AL071909 26.2723 -93.1926 TS 37 0 11 265
1909234N23274 1909 43 NA GM NOT_NAMED 1909-08-24 06:00:00 TS 26.2000 -93.8000 35 hurdat_atl main 329 269 O_____________ hurdat_atl AL071909 26.2000 -93.8000 TS 35 0 11 261
1909234N23274 1909 43 NA GM NOT_NAMED 1909-08-24 09:00:00 TS 26.1071 -94.3850 main 269 209 P_____________ AL071909 26.1071 -94.3850 TS 35 0 11 259
1909234N23274 1909 43 NA GM NOT_NAMED 1909-08-24 12:00:00 TS 26.0000 -95.0000 35 hurdat_atl main 209 140 O_____________ hurdat_atl AL071909 26.0000 -95.0000 TS 35 0 12 260
1909234N23274 1909 43 NA GM NOT_NAMED 1909-08-24 15:00:00 TS 25.9077 -95.7074 main 140 73 P_____________ AL071909 25.9077 -95.7074 TS 32 -1 13 261
1909234N23274 1909 43 NA GM NOT_NAMED 1909-08-24 18:00:00 TS 25.8000 -96.4000 30 hurdat_atl main 73 30 O_____________ hurdat_atl AL071909 25.8000 -96.4000 TD 30 -1 12 258
1909234N23274 1909 43 NA GM NOT_NAMED 1909-08-24 21:00:00 TS 25.6721 -96.9797 main 20 0 P_____________ AL071909 25.6721 -96.9797 TD 30 -1 10 253
1909234N23274 1909 43 NA NA NOT_NAMED 1909-08-25 00:00:00 TS 25.5000 -97.5000 30 hurdat_atl main 0 0 O_____________ hurdat_atl AL071909 25.5000 -97.5000 TD 30 -1 10 246
1909234N23274 1909 43 NA NA NOT_NAMED 1909-08-25 03:00:00 TS 25.2679 -98.0030 main 0 0 P_____________ AL071909 25.2679 -98.0030 TD 27 -1 10 241
1909234N23274 1909 43 NA NA NOT_NAMED 1909-08-25 06:00:00 TS 25.0000 -98.5000 25 hurdat_atl main 0 O_____________ hurdat_atl AL071909 25.0000 -98.5000 TD 25 -1 10 239

IBTrACS Databaseについて

本データベースは、米国NOAAが公開する1842年以降の世界の熱帯低気圧のベストトラックデータアーカイブInternational Best Track Archive for Climate Stewardship (IBTrACS)を、ウェブで閲覧しやすい形式に変換したものです。

最終更新日:2021-11-26